KMRF/MRF METAR and TAF weather

Enter ICAO airport designator
Station Type Date Time Source
KMRF METAR 2022/09/28 19:56 UTC NOAA

KMRF 281956Z AUTO 09012G17KT 10SM CLR 26/M04 A3037 RMK AO2 SLP231 T02561039


Station Type Date Time Source
KMRF Decoded METAR 2022/09/28 19:56 UTC NOAA

Marfa, TX, United States (KMRF) 30-22N 104-01W 1481M
Sep 28, 2022 - 03:56 PM EDT / 2022.09.28 1956 UTC
Wind: from the E (090 degrees) at 14 MPH (12 KT) gusting to 20 MPH (17 KT):0
Visibility: 10 mile(s):0
Sky conditions: clear
Temperature: 78.1 F (25.6 C)
Dew Point: 25.0 F (-3.9 C)
Relative Humidity: 13%
Pressure (altimeter): 30.37 in. Hg (1028 hPa)
ob: KMRF 281956Z AUTO 09012G17KT 10SM CLR 26/M04 A3037 RMK AO2 SLP231 T02561039
cycle: 20

Station Type Date Time Source
KMRF TAF UTC NOAA

Error!

Example: see airport list